sensor_id;sensor_type;location;lat;lon;timestamp;pressure;altitude;pressure_sealevel;temperature;humidity
67434;BME280;54305;47.950;6.572;2023-03-21T00:00:34;94579.47;;;3.26;100.00
67434;BME280;54305;47.950;6.572;2023-03-21T00:03:00;94575.03;;;3.17;100.00
67434;BME280;54305;47.950;6.572;2023-03-21T00:05:25;94569.63;;;3.20;100.00
67434;BME280;54305;47.950;6.572;2023-03-21T00:07:51;94567.13;;;3.42;100.00
67434;BME280;54305;47.950;6.572;2023-03-21T00:10:16;94567.16;;;3.53;100.00
67434;BME280;54305;47.950;6.572;2023-03-21T00:12:41;94566.13;;;3.55;100.00
67434;BME280;54305;47.950;6.572;2023-03-21T00:15:08;94561.09;;;3.65;100.00
67434;BME280;54305;47.950;6.572;2023-03-21T00:17:33;94560.75;;;3.69;100.00
67434;BME280;54305;47.950;6.572;2023-03-21T00:20:00;94561.81;;;3.67;100.00
67434;BME280;54305;47.950;6.572;2023-03-21T00:22:26;94562.38;;;3.59;100.00
67434;BME280;54305;47.950;6.572;2023-03-21T00:24:52;94555.69;;;3.46;100.00
67434;BME280;54305;47.950;6.572;2023-03-21T00:27:17;94559.63;;;3.39;100.00
67434;BME280;54305;47.950;6.572;2023-03-21T00:29:48;94553.75;;;3.26;100.00
67434;BME280;54305;47.950;6.572;2023-03-21T00:32:14;94550.69;;;3.21;100.00
67434;BME280;54305;47.950;6.572;2023-03-21T00:34:42;94546.94;;;3.14;100.00
67434;BME280;54305;47.950;6.572;2023-03-21T00:37:08;94540.72;;;3.05;100.00
67434;BME280;54305;47.950;6.572;2023-03-21T00:39:33;94538.69;;;2.98;100.00
67434;BME280;54305;47.950;6.572;2023-03-21T00:41:59;94533.56;;;2.98;100.00
67434;BME280;54305;47.950;6.572;2023-03-21T00:44:24;94530.50;;;2.93;100.00
67434;BME280;54305;47.950;6.572;2023-03-21T00:46:50;94529.06;;;2.89;100.00
67434;BME280;54305;47.950;6.572;2023-03-21T00:49:15;94525.78;;;2.87;100.00
67434;BME280;54305;47.950;6.572;2023-03-21T00:51:40;94520.88;;;2.84;100.00
67434;BME280;54305;47.950;6.572;2023-03-21T00:54:09;94525.34;;;2.93;100.00
67434;BME280;54305;47.950;6.572;2023-03-21T00:56:35;94519.00;;;2.86;100.00
67434;BME280;54305;47.950;6.572;2023-03-21T00:59:00;94519.44;;;2.80;100.00
67434;BME280;54305;47.950;6.572;2023-03-21T01:01:25;94522.28;;;2.88;100.00
67434;BME280;54305;47.950;6.572;2023-03-21T01:03:55;94519.19;;;2.83;100.00
67434;BME280;54305;47.950;6.572;2023-03-21T01:06:29;94518.78;;;2.89;100.00
67434;BME280;54305;47.950;6.572;2023-03-21T01:08:54;94515.72;;;2.84;100.00
67434;BME280;54305;47.950;6.572;2023-03-21T01:11:21;94518.34;;;2.95;100.00
67434;BME280;54305;47.950;6.572;2023-03-21T01:13:49;94506.25;;;3.19;100.00
67434;BME280;54305;47.950;6.572;2023-03-21T01:16:14;94505.19;;;3.21;100.00
67434;BME280;54305;47.950;6.572;2023-03-21T01:18:40;94508.13;;;3.17;100.00
67434;BME280;54305;47.950;6.572;2023-03-21T01:21:07;94503.69;;;3.30;100.00
67434;BME280;54305;47.950;6.572;2023-03-21T01:23:32;94502.44;;;3.46;100.00
67434;BME280;54305;47.950;6.572;2023-03-21T01:25:58;94494.72;;;3.46;100.00
67434;BME280;54305;47.950;6.572;2023-03-21T01:28:27;94498.69;;;3.39;100.00
67434;BME280;54305;47.950;6.572;2023-03-21T01:30:52;94490.34;;;3.36;100.00
67434;BME280;54305;47.950;6.572;2023-03-21T01:33:18;94478.41;;;3.24;100.00
67434;BME280;54305;47.950;6.572;2023-03-21T01:35:46;94475.16;;;3.22;100.00
67434;BME280;54305;47.950;6.572;2023-03-21T01:38:11;94470.50;;;3.60;100.00
67434;BME280;54305;47.950;6.572;2023-03-21T01:40:37;94473.78;;;3.73;100.00
67434;BME280;54305;47.950;6.572;2023-03-21T01:43:03;94470.97;;;3.87;100.00
67434;BME280;54305;47.950;6.572;2023-03-21T01:48:12;94461.25;;;3.79;100.00
67434;BME280;54305;47.950;6.572;2023-03-21T01:50:38;94464.19;;;3.53;100.00
67434;BME280;54305;47.950;6.572;2023-03-21T01:53:05;94461.13;;;3.48;100.00
67434;BME280;54305;47.950;6.572;2023-03-21T01:55:30;94460.31;;;3.47;100.00
67434;BME280;54305;47.950;6.572;2023-03-21T01:57:56;94451.31;;;3.42;100.00
67434;BME280;54305;47.950;6.572;2023-03-21T02:00:24;94454.69;;;3.31;100.00
67434;BME280;54305;47.950;6.572;2023-03-21T02:02:53;94451.44;;;3.29;100.00
67434;BME280;54305;47.950;6.572;2023-03-21T02:08:07;94454.59;;;3.66;100.00
67434;BME280;54305;47.950;6.572;2023-03-21T02:10:33;94453.16;;;3.84;100.00
67434;BME280;54305;47.950;6.572;2023-03-21T02:12:59;94447.81;;;3.76;100.00
67434;BME280;54305;47.950;6.572;2023-03-21T02:15:32;94456.25;;;3.56;100.00
67434;BME280;54305;47.950;6.572;2023-03-21T02:18:01;94450.47;;;3.41;100.00
67434;BME280;54305;47.950;6.572;2023-03-21T02:28:47;94437.19;;;3.02;100.00
67434;BME280;54305;47.950;6.572;2023-03-21T02:31:23;94427.66;;;3.15;100.00
67434;BME280;54305;47.950;6.572;2023-03-21T02:44:29;94425.06;;;3.04;100.00
67434;BME280;54305;47.950;6.572;2023-03-21T02:46:56;94423.16;;;2.95;100.00
67434;BME280;54305;47.950;6.572;2023-03-21T02:49:29;94428.66;;;2.90;100.00
67434;BME280;54305;47.950;6.572;2023-03-21T02:51:56;94416.13;;;2.86;100.00
67434;BME280;54305;47.950;6.572;2023-03-21T02:54:22;94415.66;;;2.92;100.00
67434;BME280;54305;47.950;6.572;2023-03-21T02:56:48;94420.25;;;2.99;100.00
67434;BME280;54305;47.950;6.572;2023-03-21T02:59:15;94413.81;;;2.94;100.00
67434;BME280;54305;47.950;6.572;2023-03-21T03:01:41;94417.78;;;2.87;100.00
67434;BME280;54305;47.950;6.572;2023-03-21T03:04:23;94416.59;;;2.80;100.00
67434;BME280;54305;47.950;6.572;2023-03-21T03:07:02;94428.50;;;2.81;100.00
67434;BME280;54305;47.950;6.572;2023-03-21T03:09:33;94424.78;;;2.85;100.00
67434;BME280;54305;47.950;6.572;2023-03-21T03:12:06;94421.06;;;3.00;100.00
67434;BME280;54305;47.950;6.572;2023-03-21T03:14:42;94414.53;;;3.07;100.00
67434;BME280;54305;47.950;6.572;2023-03-21T03:17:17;94424.59;;;2.99;100.00
67434;BME280;54305;47.950;6.572;2023-03-21T03:22:22;94417.13;;;3.18;100.00
67434;BME280;54305;47.950;6.572;2023-03-21T03:25:00;94415.25;;;3.09;100.00
67434;BME280;54305;47.950;6.572;2023-03-21T03:27:28;94408.22;;;3.00;100.00
67434;BME280;54305;47.950;6.572;2023-03-21T03:29:55;94406.09;;;2.94;100.00
67434;BME280;54305;47.950;6.572;2023-03-21T03:32:30;94407.03;;;2.93;100.00
67434;BME280;54305;47.950;6.572;2023-03-21T03:34:59;94415.66;;;2.92;100.00
67434;BME280;54305;47.950;6.572;2023-03-21T03:37:28;94418.25;;;2.92;100.00
67434;BME280;54305;47.950;6.572;2023-03-21T03:40:06;94416.16;;;2.97;100.00
67434;BME280;54305;47.950;6.572;2023-03-21T03:42:35;94414.28;;;2.88;100.00
67434;BME280;54305;47.950;6.572;2023-03-21T03:45:03;94425.38;;;2.88;100.00
67434;BME280;54305;47.950;6.572;2023-03-21T03:50:03;94420.38;;;2.98;100.00
67434;BME280;54305;47.950;6.572;2023-03-21T03:52:37;94418.28;;;3.03;100.00
67434;BME280;54305;47.950;6.572;2023-03-21T03:55:05;94416.66;;;3.24;100.00
67434;BME280;54305;47.950;6.572;2023-03-21T03:57:30;94415.84;;;3.45;100.00
67434;BME280;54305;47.950;6.572;2023-03-21T03:59:56;94414.22;;;3.55;100.00
67434;BME280;54305;47.950;6.572;2023-03-21T04:02:22;94412.22;;;3.15;100.00
67434;BME280;54305;47.950;6.572;2023-03-21T04:04:47;94404.03;;;3.10;100.00
67434;BME280;54305;47.950;6.572;2023-03-21T04:07:16;94420.25;;;2.99;100.00
67434;BME280;54305;47.950;6.572;2023-03-21T04:09:42;94414.97;;;2.90;100.00
67434;BME280;54305;47.950;6.572;2023-03-21T04:12:07;94410.19;;;2.85;100.00
67434;BME280;54305;47.950;6.572;2023-03-21T04:14:32;94414.50;;;2.85;100.00
67434;BME280;54305;47.950;6.572;2023-03-21T04:16:57;94406.06;;;2.83;100.00
67434;BME280;54305;47.950;6.572;2023-03-21T04:19:23;94400.03;;;2.95;100.00
67434;BME280;54305;47.950;6.572;2023-03-21T04:21:48;94407.03;;;2.93;100.00
67434;BME280;54305;47.950;6.572;2023-03-21T04:24:13;94396.16;;;2.89;100.00
67434;BME280;54305;47.950;6.572;2023-03-21T04:26:39;94405.75;;;2.87;100.00
67434;BME280;54305;47.950;6.572;2023-03-21T04:29:07;94406.06;;;2.83;100.00
67434;BME280;54305;47.950;6.572;2023-03-21T04:31:32;94401.38;;;2.77;100.00
67434;BME280;54305;47.950;6.572;2023-03-21T04:34:00;94397.66;;;2.81;100.00
67434;BME280;54305;47.950;6.572;2023-03-21T04:36:27;94400.97;;;3.05;100.00
67434;BME280;54305;47.950;6.572;2023-03-21T04:38:57;94390.09;;;3.01;100.00
67434;BME280;54305;47.950;6.572;2023-03-21T04:41:26;94390.09;;;3.01;100.00
67434;BME280;54305;47.950;6.572;2023-03-21T04:43:52;94388.09;;;3.05;100.00
67434;BME280;54305;47.950;6.572;2023-03-21T04:46:17;94388.56;;;2.99;100.00
67434;BME280;54305;47.950;6.572;2023-03-21T04:48:43;94387.16;;;3.06;100.00
67434;BME280;54305;47.950;6.572;2023-03-21T04:51:08;94391.38;;;2.96;100.00
67434;BME280;54305;47.950;6.572;2023-03-21T04:53:33;94382.72;;;2.97;100.00
67434;BME280;54305;47.950;6.572;2023-03-21T04:55:58;94380.88;;;2.99;100.00
67434;BME280;54305;47.950;6.572;2023-03-21T04:58:24;94388.81;;;3.07;100.00
67434;BME280;54305;47.950;6.572;2023-03-21T05:00:50;94385.53;;;3.05;100.00
67434;BME280;54305;47.950;6.572;2023-03-21T05:03:17;94381.09;;;3.07;100.00
67434;BME280;54305;47.950;6.572;2023-03-21T05:05:44;94390.69;;;3.05;100.00
67434;BME280;54305;47.950;6.572;2023-03-21T05:08:10;94394.91;;;3.28;100.00
67434;BME280;54305;47.950;6.572;2023-03-21T05:10:35;94384.28;;;3.43;100.00
67434;BME280;54305;47.950;6.572;2023-03-21T05:13:00;94383.69;;;3.51;100.00
67434;BME280;54305;47.950;6.572;2023-03-21T05:15:25;94380.16;;;3.41;100.00
67434;BME280;54305;47.950;6.572;2023-03-21T05:17:51;94380.16;;;3.30;100.00
67434;BME280;54305;47.950;6.572;2023-03-21T05:20:16;94383.31;;;3.22;100.00
67434;BME280;54305;47.950;6.572;2023-03-21T05:22:42;94381.34;;;3.15;100.00
67434;BME280;54305;47.950;6.572;2023-03-21T05:25:10;94374.56;;;3.25;100.00
67434;BME280;54305;47.950;6.572;2023-03-21T05:27:36;94373.38;;;3.40;100.00
67434;BME280;54305;47.950;6.572;2023-03-21T05:32:26;94374.06;;;3.64;100.00
67434;BME280;54305;47.950;6.572;2023-03-21T05:34:52;94381.56;;;3.56;100.00
67434;BME280;54305;47.950;6.572;2023-03-21T05:37:17;94373.41;;;3.51;100.00
67434;BME280;54305;47.950;6.572;2023-03-21T05:39:42;94380.50;;;3.47;100.00
67434;BME280;54305;47.950;6.572;2023-03-21T05:42:07;94379.72;;;3.47;100.00
67434;BME280;54305;47.950;6.572;2023-03-21T05:44:33;94374.09;;;3.53;100.00
67434;BME280;54305;47.950;6.572;2023-03-21T05:46:58;94382.03;;;3.50;100.00
67434;BME280;54305;47.950;6.572;2023-03-21T05:49:26;94385.53;;;3.49;100.00
67434;BME280;54305;47.950;6.572;2023-03-21T05:51:51;94380.16;;;3.63;100.00
67434;BME280;54305;47.950;6.572;2023-03-21T05:54:16;94380.38;;;3.71;100.00
67434;BME280;54305;47.950;6.572;2023-03-21T05:56:42;94382.25;;;3.69;100.00
67434;BME280;54305;47.950;6.572;2023-03-21T05:59:07;94383.88;;;3.70;100.00
67434;BME280;54305;47.950;6.572;2023-03-21T06:01:33;94383.16;;;3.79;100.00
67434;BME280;54305;47.950;6.572;2023-03-21T06:03:58;94385.97;;;3.87;100.00
67434;BME280;54305;47.950;6.572;2023-03-21T06:06:23;94379.28;;;3.95;100.00
67434;BME280;54305;47.950;6.572;2023-03-21T06:08:48;94377.63;;;3.94;100.00
67434;BME280;54305;47.950;6.572;2023-03-21T06:11:19;94385.75;;;3.90;100.00
67434;BME280;54305;47.950;6.572;2023-03-21T06:13:47;94384.78;;;3.91;100.00
67434;BME280;54305;47.950;6.572;2023-03-21T06:16:12;94384.53;;;3.94;100.00
67434;BME280;54305;47.950;6.572;2023-03-21T06:18:37;94384.69;;;3.92;100.00
67434;BME280;54305;47.950;6.572;2023-03-21T06:21:02;94380.31;;;3.93;100.00
67434;BME280;54305;47.950;6.572;2023-03-21T06:23:28;94373.78;;;3.89;100.00
67434;BME280;54305;47.950;6.572;2023-03-21T06:25:53;94383.38;;;3.98;100.00
67434;BME280;54305;47.950;6.572;2023-03-21T06:28:18;94382.91;;;4.04;100.00
67434;BME280;54305;47.950;6.572;2023-03-21T06:30:43;94376.41;;;4.09;100.00
67434;BME280;54305;47.950;6.572;2023-03-21T06:33:09;94375.38;;;4.12;100.00
67434;BME280;54305;47.950;6.572;2023-03-21T06:35:34;94373.00;;;4.20;100.00
67434;BME280;54305;47.950;6.572;2023-03-21T06:37:59;94381.53;;;4.31;100.00
67434;BME280;54305;47.950;6.572;2023-03-21T06:40:25;94376.44;;;4.41;100.00
67434;BME280;54305;47.950;6.572;2023-03-21T06:42:50;94375.94;;;4.47;100.00
67434;BME280;54305;47.950;6.572;2023-03-21T06:45:15;94374.72;;;4.62;100.00
67434;BME280;54305;47.950;6.572;2023-03-21T06:47:43;94373.94;;;4.71;100.00
67434;BME280;54305;47.950;6.572;2023-03-21T06:50:08;94372.13;;;4.82;100.00
67434;BME280;54305;47.950;6.572;2023-03-21T06:52:34;94367.91;;;5.02;100.00
67434;BME280;54305;47.950;6.572;2023-03-21T06:55:00;94370.41;;;5.13;100.00
67434;BME280;54305;47.950;6.572;2023-03-21T06:57:27;94370.75;;;5.29;100.00
67434;BME280;54305;47.950;6.572;2023-03-21T06:59:52;94376.09;;;5.37;100.00
67434;BME280;54305;47.950;6.572;2023-03-21T07:02:17;94370.81;;;5.48;100.00
67434;BME280;54305;47.950;6.572;2023-03-21T07:04:43;94374.13;;;5.59;100.00
67434;BME280;54305;47.950;6.572;2023-03-21T07:07:08;94373.91;;;5.72;100.00
67434;BME280;54305;47.950;6.572;2023-03-21T07:09:34;94381.31;;;5.86;100.00
67434;BME280;54305;47.950;6.572;2023-03-21T07:11:59;94386.81;;;6.02;100.00
67434;BME280;54305;47.950;6.572;2023-03-21T07:14:24;94385.34;;;6.09;100.00
67434;BME280;54305;47.950;6.572;2023-03-21T07:16:50;94390.91;;;6.14;100.00
67434;BME280;54305;47.950;6.572;2023-03-21T07:19:15;94379.50;;;6.26;100.00
67434;BME280;54305;47.950;6.572;2023-03-21T07:21:40;94381.16;;;6.46;100.00
67434;BME280;54305;47.950;6.572;2023-03-21T07:24:06;94380.09;;;6.67;100.00
67434;BME280;54305;47.950;6.572;2023-03-21T07:26:33;94376.25;;;6.81;100.00
67434;BME280;54305;47.950;6.572;2023-03-21T07:29:01;94383.03;;;7.01;100.00
67434;BME280;54305;47.950;6.572;2023-03-21T07:31:26;94390.09;;;7.18;100.00
67434;BME280;54305;47.950;6.572;2023-03-21T07:33:52;94378.03;;;7.36;100.00
67434;BME280;54305;47.950;6.572;2023-03-21T07:36:17;94379.38;;;7.49;100.00
67434;BME280;54305;47.950;6.572;2023-03-21T07:38:43;94380.31;;;7.58;100.00
67434;BME280;54305;47.950;6.572;2023-03-21T07:41:09;94380.31;;;7.85;100.00
67434;BME280;54305;47.950;6.572;2023-03-21T07:43:35;94379.41;;;8.03;100.00
67434;BME280;54305;47.950;6.572;2023-03-21T07:46:00;94376.56;;;8.24;100.00
67434;BME280;54305;47.950;6.572;2023-03-21T07:48:25;94379.22;;;8.41;100.00
67434;BME280;54305;47.950;6.572;2023-03-21T07:50:51;94375.19;;;8.64;100.00
67434;BME280;54305;47.950;6.572;2023-03-21T07:53:16;94377.22;;;8.88;100.00
67434;BME280;54305;47.950;6.572;2023-03-21T07:55:42;94371.22;;;9.13;100.00
67434;BME280;54305;47.950;6.572;2023-03-21T07:58:07;94374.69;;;9.47;100.00
67434;BME280;54305;47.950;6.572;2023-03-21T08:00:32;94373.56;;;9.75;92.68
67434;BME280;54305;47.950;6.572;2023-03-21T08:02:58;94366.50;;;10.34;97.78
67434;BME280;54305;47.950;6.572;2023-03-21T08:05:25;94376.28;;;10.40;89.23
67434;BME280;54305;47.950;6.572;2023-03-21T08:07:50;94370.94;;;10.58;88.52
67434;BME280;54305;47.950;6.572;2023-03-21T08:10:16;94382.06;;;10.92;81.42
67434;BME280;54305;47.950;6.572;2023-03-21T08:12:41;94377.84;;;11.15;82.06
67434;BME280;54305;47.950;6.572;2023-03-21T08:15:07;94380.56;;;11.45;80.46
67434;BME280;54305;47.950;6.572;2023-03-21T08:17:34;94380.44;;;11.15;75.21
67434;BME280;54305;47.950;6.572;2023-03-21T08:20:02;94373.91;;;11.35;77.79
67434;BME280;54305;47.950;6.572;2023-03-21T08:22:29;94372.09;;;11.59;73.44
67434;BME280;54305;47.950;6.572;2023-03-21T08:24:54;94380.22;;;11.48;72.81
67434;BME280;54305;47.950;6.572;2023-03-21T08:27:19;94380.75;;;11.36;75.32
67434;BME280;54305;47.950;6.572;2023-03-21T08:29:45;94374.56;;;11.29;73.32
67434;BME280;54305;47.950;6.572;2023-03-21T08:32:10;94379.13;;;11.19;74.05
67434;BME280;54305;47.950;6.572;2023-03-21T08:34:35;94377.16;;;11.13;73.85
67434;BME280;54305;47.950;6.572;2023-03-21T08:37:01;94378.00;;;11.21;80.01
67434;BME280;54305;47.950;6.572;2023-03-21T08:39:26;94381.56;;;11.28;76.44
67434;BME280;54305;47.950;6.572;2023-03-21T08:41:53;94385.63;;;11.39;75.68
67434;BME280;54305;47.950;6.572;2023-03-21T08:44:18;94381.09;;;10.85;73.50
67434;BME280;54305;47.950;6.572;2023-03-21T08:46:44;94378.47;;;11.09;77.85
67434;BME280;54305;47.950;6.572;2023-03-21T08:49:09;94385.31;;;11.18;77.23
67434;BME280;54305;47.950;6.572;2023-03-21T08:51:35;94384.34;;;11.19;75.35
67434;BME280;54305;47.950;6.572;2023-03-21T08:54:01;94375.53;;;11.36;79.31
67434;BME280;54305;47.950;6.572;2023-03-21T08:56:27;94384.66;;;11.64;78.10
67434;BME280;54305;47.950;6.572;2023-03-21T08:58:52;94378.41;;;11.81;75.88
67434;BME280;54305;47.950;6.572;2023-03-21T09:01:17;94373.75;;;11.60;76.18
67434;BME280;54305;47.950;6.572;2023-03-21T09:03:43;94381.53;;;11.52;76.88
67434;BME280;54305;47.950;6.572;2023-03-21T09:06:08;94383.97;;;11.62;77.57
67434;BME280;54305;47.950;6.572;2023-03-21T09:08:36;94382.72;;;11.34;79.68
67434;BME280;54305;47.950;6.572;2023-03-21T09:11:01;94383.66;;;11.73;77.02
67434;BME280;54305;47.950;6.572;2023-03-21T09:13:26;94385.63;;;11.31;77.78
67434;BME280;54305;47.950;6.572;2023-03-21T09:15:52;94392.47;;;11.40;78.35
67434;BME280;54305;47.950;6.572;2023-03-21T09:18:18;94394.09;;;11.41;77.40
67434;BME280;54305;47.950;6.572;2023-03-21T09:20:47;94386.28;;;11.49;79.51
67434;BME280;54305;47.950;6.572;2023-03-21T09:23:13;94388.41;;;11.45;79.81
67434;BME280;54305;47.950;6.572;2023-03-21T09:25:39;94393.78;;;11.12;75.15
67434;BME280;54305;47.950;6.572;2023-03-21T09:28:05;94396.06;;;11.07;76.79
67434;BME280;54305;47.950;6.572;2023-03-21T09:30:31;94394.72;;;11.51;82.43
67434;BME280;54305;47.950;6.572;2023-03-21T09:33:00;94394.34;;;11.94;74.81
67434;BME280;54305;47.950;6.572;2023-03-21T09:35:27;94399.97;;;11.35;75.62
67434;BME280;54305;47.950;6.572;2023-03-21T09:37:53;94388.19;;;11.87;75.35
67434;BME280;54305;47.950;6.572;2023-03-21T09:42:57;94391.47;;;12.58;70.00
67434;BME280;54305;47.950;6.572;2023-03-21T09:45:40;94394.50;;;12.39;72.39
67434;BME280;54305;47.950;6.572;2023-03-21T09:48:14;94388.66;;;12.98;69.26
67434;BME280;54305;47.950;6.572;2023-03-21T09:50:43;94396.25;;;12.77;69.90
67434;BME280;54305;47.950;6.572;2023-03-21T09:53:20;94387.69;;;13.13;69.85
67434;BME280;54305;47.950;6.572;2023-03-21T09:55:47;94390.72;;;13.02;70.92
67434;BME280;54305;47.950;6.572;2023-03-21T09:58:27;94379.25;;;13.63;68.73
67434;BME280;54305;47.950;6.572;2023-03-21T10:01:05;94378.03;;;13.88;66.14
67434;BME280;54305;47.950;6.572;2023-03-21T10:03:34;94377.22;;;13.87;67.80
67434;BME280;54305;47.950;6.572;2023-03-21T10:06:01;94382.00;;;13.10;67.58
67434;BME280;54305;47.950;6.572;2023-03-21T10:08:32;94379.25;;;12.81;69.17
67434;BME280;54305;47.950;6.572;2023-03-21T10:11:01;94383.88;;;13.24;71.74
67434;BME280;54305;47.950;6.572;2023-03-21T10:13:33;94368.34;;;13.59;68.76
67434;BME280;54305;47.950;6.572;2023-03-21T10:16:00;94372.88;;;12.53;71.54
67434;BME280;54305;47.950;6.572;2023-03-21T10:18:27;94373.25;;;12.50;71.40
67434;BME280;54305;47.950;6.572;2023-03-21T10:20:53;94368.84;;;12.73;74.11
67434;BME280;54305;47.950;6.572;2023-03-21T10:23:19;94368.19;;;12.71;70.67
67434;BME280;54305;47.950;6.572;2023-03-21T10:25:49;94369.81;;;12.72;71.81
67434;BME280;54305;47.950;6.572;2023-03-21T10:28:17;94368.72;;;13.34;71.29
67434;BME280;54305;47.950;6.572;2023-03-21T10:30:52;94370.81;;;12.71;70.56
67434;BME280;54305;47.950;6.572;2023-03-21T10:33:28;94364.81;;;13.15;70.44
67434;BME280;54305;47.950;6.572;2023-03-21T10:36:06;94367.31;;;13.09;67.41
67434;BME280;54305;47.950;6.572;2023-03-21T10:38:33;94375.59;;;12.67;70.33
67434;BME280;54305;47.950;6.572;2023-03-21T10:40:59;94364.41;;;12.51;70.60
67434;BME280;54305;47.950;6.572;2023-03-21T10:45:53;94369.78;;;13.25;68.78
67434;BME280;54305;47.950;6.572;2023-03-21T10:48:19;94367.38;;;13.01;69.49
67434;BME280;54305;47.950;6.572;2023-03-21T10:50:46;94374.19;;;13.47;69.26
67434;BME280;54305;47.950;6.572;2023-03-21T10:53:34;94363.84;;;12.86;66.96
67434;BME280;54305;47.950;6.572;2023-03-21T10:56:02;94357.00;;;13.30;69.49
67434;BME280;54305;47.950;6.572;2023-03-21T10:58:33;94358.16;;;12.82;69.76
67434;BME280;54305;47.950;6.572;2023-03-21T11:01:03;94365.41;;;13.03;68.26
67434;BME280;54305;47.950;6.572;2023-03-21T11:03:30;94366.13;;;13.34;67.16
67434;BME280;54305;47.950;6.572;2023-03-21T11:06:06;94360.94;;;13.26;68.25
67434;BME280;54305;47.950;6.572;2023-03-21T11:09:06;94362.63;;;14.72;64.48
67434;BME280;54305;47.950;6.572;2023-03-21T11:11:24;94362.22;;;14.75;63.09
67434;BME280;54305;47.950;6.572;2023-03-21T11:13:56;94351.81;;;15.23;60.70
67434;BME280;54305;47.950;6.572;2023-03-21T11:16:23;94358.22;;;14.58;62.96
67434;BME280;54305;47.950;6.572;2023-03-21T11:18:49;94357.97;;;15.58;64.07
67434;BME280;54305;47.950;6.572;2023-03-21T11:21:15;94360.63;;;15.16;62.02
67434;BME280;54305;47.950;6.572;2023-03-21T11:23:41;94360.50;;;15.24;58.75
67434;BME280;54305;47.950;6.572;2023-03-21T11:26:19;94358.38;;;14.21;60.65
67434;BME280;54305;47.950;6.572;2023-03-21T11:28:48;94354.38;;;13.96;62.13
67434;BME280;54305;47.950;6.572;2023-03-21T11:31:15;94350.03;;;14.32;66.34
67434;BME280;54305;47.950;6.572;2023-03-21T11:34:01;94346.97;;;14.43;64.44
67434;BME280;54305;47.950;6.572;2023-03-21T11:36:32;94353.25;;;14.48;64.37
67434;BME280;54305;47.950;6.572;2023-03-21T11:38:59;94349.69;;;14.70;61.04
67434;BME280;54305;47.950;6.572;2023-03-21T11:41:30;94325.81;;;16.17;58.49
67434;BME280;54305;47.950;6.572;2023-03-21T11:43:56;94331.84;;;14.59;60.48
67434;BME280;54305;47.950;6.572;2023-03-21T11:46:22;94339.91;;;14.14;62.00
67434;BME280;54305;47.950;6.572;2023-03-21T11:48:51;94334.13;;;14.48;62.50
67434;BME280;54305;47.950;6.572;2023-03-21T11:51:32;94331.25;;;14.43;66.43
67434;BME280;54305;47.950;6.572;2023-03-21T11:54:18;94317.56;;;14.83;60.59
67434;BME280;54305;47.950;6.572;2023-03-21T11:56:46;94318.59;;;15.58;58.81
67434;BME280;54305;47.950;6.572;2023-03-21T12:07:15;94310.47;;;13.25;64.00
67434;BME280;54305;47.950;6.572;2023-03-21T12:09:56;94307.53;;;13.06;65.64
67434;BME280;54305;47.950;6.572;2023-03-21T12:14:58;94301.25;;;13.15;66.93
67434;BME280;54305;47.950;6.572;2023-03-21T12:19:59;94297.50;;;13.32;67.81
67434;BME280;54305;47.950;6.572;2023-03-21T12:25:18;94302.00;;;12.56;69.39
67434;BME280;54305;47.950;6.572;2023-03-21T12:27:49;94297.63;;;12.56;70.60
67434;BME280;54305;47.950;6.572;2023-03-21T12:38:22;94291.84;;;12.61;72.26
67434;BME280;54305;47.950;6.572;2023-03-21T12:45:56;94289.72;;;12.34;72.87
67434;BME280;54305;47.950;6.572;2023-03-21T12:48:27;94293.22;;;11.96;70.15
67434;BME280;54305;47.950;6.572;2023-03-21T12:50:54;94292.31;;;12.11;69.86
67434;BME280;54305;47.950;6.572;2023-03-21T12:53:29;94281.41;;;12.08;70.27
67434;BME280;54305;47.950;6.572;2023-03-21T12:56:00;94282.41;;;12.07;70.57
67434;BME280;54305;47.950;6.572;2023-03-21T12:58:27;94285.44;;;11.88;72.88
67434;BME280;54305;47.950;6.572;2023-03-21T13:03:19;94279.63;;;12.08;74.54
67434;BME280;54305;47.950;6.572;2023-03-21T13:08:15;94282.13;;;11.94;72.23
67434;BME280;54305;47.950;6.572;2023-03-21T13:10:44;94283.13;;;11.93;75.61
67434;BME280;54305;47.950;6.572;2023-03-21T13:20:50;94267.66;;;12.14;74.32
67434;BME280;54305;47.950;6.572;2023-03-21T13:23:20;94273.84;;;12.21;74.88
67434;BME280;54305;47.950;6.572;2023-03-21T13:25:46;94260.06;;;12.35;73.47
67434;BME280;54305;47.950;6.572;2023-03-21T13:30:46;94263.28;;;12.37;73.25
67434;BME280;54305;47.950;6.572;2023-03-21T13:33:21;94263.16;;;12.30;73.61
67434;BME280;54305;47.950;6.572;2023-03-21T13:38:39;94259.53;;;12.09;74.50
67434;BME280;54305;47.950;6.572;2023-03-21T13:48:54;94268.56;;;11.68;76.75
67434;BME280;54305;47.950;6.572;2023-03-21T13:56:26;94272.41;;;11.80;79.62
67434;BME280;54305;47.950;6.572;2023-03-21T13:58:54;94271.09;;;11.84;78.62
67434;BME280;54305;47.950;6.572;2023-03-21T14:04:08;94278.69;;;11.63;81.77
67434;BME280;54305;47.950;6.572;2023-03-21T14:06:48;94287.19;;;11.49;84.62
67434;BME280;54305;47.950;6.572;2023-03-21T14:09:23;94276.53;;;11.58;88.53
67434;BME280;54305;47.950;6.572;2023-03-21T14:11:50;94285.81;;;11.77;85.44
67434;BME280;54305;47.950;6.572;2023-03-21T14:14:17;94274.56;;;11.76;84.78
67434;BME280;54305;47.950;6.572;2023-03-21T14:16:43;94286.69;;;11.61;83.39
67434;BME280;54305;47.950;6.572;2023-03-21T14:19:09;94278.38;;;11.42;86.53
67434;BME280;54305;47.950;6.572;2023-03-21T14:21:35;94275.06;;;11.72;90.95
67434;BME280;54305;47.950;6.572;2023-03-21T14:26:28;94272.47;;;11.72;86.36
67434;BME280;54305;47.950;6.572;2023-03-21T14:28:54;94272.31;;;11.65;90.08
67434;BME280;54305;47.950;6.572;2023-03-21T14:31:19;94272.16;;;11.67;89.01
67434;BME280;54305;47.950;6.572;2023-03-21T14:33:46;94268.88;;;11.73;90.11
67434;BME280;54305;47.950;6.572;2023-03-21T14:36:16;94263.59;;;11.81;89.76
67434;BME280;54305;47.950;6.572;2023-03-21T14:38:43;94262.34;;;11.77;86.69
67434;BME280;54305;47.950;6.572;2023-03-21T14:41:18;94258.81;;;11.54;89.38
67434;BME280;54305;47.950;6.572;2023-03-21T14:43:56;94246.56;;;11.62;91.79